createdAt,value
2017-09-21T00:02:23.011Z,1.23
2017-09-21T00:04:50.482Z,1.00
2017-09-21T00:07:17.906Z,2.50
2017-09-21T00:09:45.333Z,1.07
2017-09-21T00:12:12.744Z,0.97
2017-09-21T00:14:40.155Z,1.20
2017-09-21T00:17:07.679Z,0.93
2017-09-21T00:19:35.105Z,1.17
2017-09-21T00:22:02.509Z,1.73
2017-09-21T00:24:29.989Z,1.17
2017-09-21T00:26:57.402Z,2.10
2017-09-21T00:29:24.819Z,1.37
2017-09-21T00:31:52.265Z,1.20
2017-09-21T00:34:19.685Z,1.87
2017-09-21T00:36:47.099Z,1.17
2017-09-21T00:39:14.547Z,1.30
2017-09-21T00:41:41.950Z,1.40
2017-09-21T00:44:09.354Z,1.27
2017-09-21T00:46:36.788Z,2.00
2017-09-21T00:49:04.328Z,2.10
2017-09-21T00:51:31.728Z,1.10
2017-09-21T00:53:59.277Z,1.10
2017-09-21T00:56:26.704Z,1.07
2017-09-21T00:58:54.117Z,1.30
2017-09-21T01:01:21.590Z,1.20
2017-09-21T01:03:48.994Z,0.97
2017-09-21T01:06:16.437Z,1.30
2017-09-21T01:08:43.891Z,1.20
2017-09-21T01:11:11.303Z,1.20
2017-09-21T01:13:39.631Z,1.20
2017-09-21T01:16:07.049Z,1.50
2017-09-21T01:18:34.458Z,1.00
2017-09-21T01:21:01.883Z,1.33
2017-09-21T01:23:29.329Z,3.13
2017-09-21T01:25:56.757Z,1.10
2017-09-21T01:28:24.282Z,1.27
2017-09-21T01:30:51.947Z,1.20
2017-09-21T01:33:19.354Z,1.30
2017-09-21T01:35:46.770Z,1.10
2017-09-21T01:38:14.191Z,1.30
2017-09-21T01:40:41.706Z,1.37
2017-09-21T01:43:09.134Z,1.10
2017-09-21T01:45:36.634Z,1.20
2017-09-21T01:48:04.187Z,2.07
2017-09-21T01:50:31.715Z,1.10
2017-09-21T01:52:59.174Z,1.10
2017-09-21T01:55:26.633Z,1.20
2017-09-21T01:57:54.127Z,1.10
2017-09-21T02:00:21.587Z,1.10
2017-09-21T02:02:48.999Z,1.63
2017-09-21T02:05:16.397Z,1.20
2017-09-21T02:07:43.819Z,1.10
2017-09-21T02:10:11.237Z,1.50
2017-09-21T02:12:38.649Z,0.93
2017-09-21T02:15:06.095Z,1.20
2017-09-21T02:17:33.523Z,1.30
2017-09-21T02:20:00.930Z,1.03
2017-09-21T02:22:28.407Z,1.20
2017-09-21T02:24:55.825Z,1.10
2017-09-21T02:27:23.243Z,1.10
2017-09-21T02:29:50.686Z,1.00
2017-09-21T02:32:18.082Z,1.10
2017-09-21T02:34:45.499Z,1.00
2017-09-21T02:37:13.104Z,0.93
2017-09-21T02:39:40.545Z,1.37
2017-09-21T02:42:07.968Z,1.00
2017-09-21T02:44:35.402Z,1.10
2017-09-21T02:47:02.823Z,1.33
2017-09-21T02:49:30.228Z,0.90
2017-09-21T02:51:57.676Z,1.30
2017-09-21T02:54:25.123Z,2.53
2017-09-21T02:56:52.533Z,1.03
2017-09-21T02:59:19.986Z,2.13
2017-09-21T03:01:47.554Z,1.00
2017-09-21T03:04:14.978Z,1.10
2017-09-21T03:06:42.395Z,1.63
2017-09-21T03:09:09.856Z,3.27
2017-09-21T03:11:37.268Z,1.37
2017-09-21T03:14:05.295Z,1.30
2017-09-21T03:16:32.715Z,1.20
2017-09-21T03:19:00.147Z,1.50
2017-09-21T03:21:27.649Z,1.10
2017-09-21T03:23:55.212Z,1.30
2017-09-21T03:26:22.618Z,1.10
2017-09-21T03:28:50.069Z,1.57
2017-09-21T03:31:17.510Z,1.30
2017-09-21T03:33:44.923Z,1.27
2017-09-21T03:36:12.380Z,1.20
2017-09-21T03:38:39.797Z,1.03
2017-09-21T03:41:07.228Z,1.20
2017-09-21T03:43:34.692Z,1.20
2017-09-21T03:46:02.106Z,1.17
2017-09-21T03:48:29.512Z,1.10
2017-09-21T03:50:57.006Z,1.40
2017-09-21T03:53:24.547Z,1.20
2017-09-21T03:55:51.954Z,1.20
2017-09-21T03:58:19.407Z,1.10
2017-09-21T04:00:46.807Z,1.00
2017-09-21T04:03:14.219Z,1.27
2017-09-21T04:05:41.648Z,0.90
2017-09-21T04:08:09.061Z,1.93
2017-09-21T04:10:36.467Z,1.40
2017-09-21T04:13:03.909Z,1.10
2017-09-21T04:15:31.317Z,1.20
2017-09-21T04:17:59.322Z,1.60
2017-09-21T04:20:26.766Z,1.20
2017-09-21T04:22:54.218Z,1.43
2017-09-21T04:25:21.630Z,2.07
2017-09-21T04:27:49.064Z,1.33
2017-09-21T04:30:16.474Z,1.02
2017-09-21T04:32:43.884Z,1.17
2017-09-21T04:35:11.324Z,1.20
2017-09-21T04:37:38.722Z,1.40
2017-09-21T04:40:06.149Z,1.50
2017-09-21T04:42:33.596Z,1.93
2017-09-21T04:45:01.136Z,2.20
2017-09-21T04:47:28.542Z,2.10
2017-09-21T04:49:55.979Z,1.30
2017-09-21T04:52:23.402Z,1.40
2017-09-21T04:54:50.810Z,1.40
2017-09-21T04:57:18.255Z,3.10
2017-09-21T04:59:45.730Z,2.87
2017-09-21T05:02:13.145Z,1.43
2017-09-21T05:04:40.575Z,3.57
2017-09-21T05:07:08.010Z,5.10
2017-09-21T05:09:35.417Z,3.00
2017-09-21T05:12:02.922Z,3.20
2017-09-21T05:14:30.337Z,4.10
2017-09-21T05:16:57.748Z,2.77
2017-09-21T05:19:25.192Z,7.47
2017-09-21T05:21:52.595Z,4.50
2017-09-21T05:24:20.005Z,7.10
2017-09-21T05:26:47.453Z,7.75
2017-09-21T05:29:14.872Z,3.70
2017-09-21T05:31:42.329Z,7.17
2017-09-21T05:34:09.780Z,8.38
2017-09-21T05:36:37.304Z,3.87
2017-09-21T05:39:04.756Z,5.40
2017-09-21T05:41:32.190Z,6.37
2017-09-21T05:43:59.627Z,5.77
2017-09-21T05:46:27.034Z,6.57
2017-09-21T05:48:54.483Z,3.30
2017-09-21T05:51:21.891Z,6.60
2017-09-21T05:53:49.593Z,7.27
2017-09-21T05:56:17.006Z,4.25
2017-09-21T05:58:44.415Z,9.53
2017-09-21T06:01:11.883Z,7.40
2017-09-21T06:03:39.345Z,14.53
2017-09-21T06:06:06.785Z,6.43
2017-09-21T06:08:34.211Z,4.23
2017-09-21T06:11:01.653Z,7.90
2017-09-21T06:13:29.070Z,11.70
2017-09-21T06:15:56.501Z,8.20
2017-09-21T06:18:24.265Z,4.60
2017-09-21T06:20:51.672Z,6.50
2017-09-21T06:23:19.087Z,6.10
2017-09-21T06:25:46.507Z,6.80
2017-09-21T06:28:13.910Z,5.10
2017-09-21T06:30:41.435Z,5.50
2017-09-21T06:33:08.898Z,4.40
2017-09-21T06:35:36.492Z,6.57
2017-09-21T06:38:03.904Z,2.93
2017-09-21T06:40:31.468Z,6.80
2017-09-21T06:42:58.901Z,9.13
2017-09-21T06:45:26.306Z,8.20
2017-09-21T06:47:53.745Z,9.33
2017-09-21T06:50:21.214Z,7.93
2017-09-21T06:52:48.612Z,3.40
2017-09-21T06:55:16.071Z,3.70
2017-09-21T06:57:43.583Z,4.37
2017-09-21T07:00:10.991Z,6.07
2017-09-21T07:02:38.438Z,3.57
2017-09-21T07:05:05.959Z,3.50
2017-09-21T07:07:33.374Z,2.93
2017-09-21T07:10:00.837Z,4.83
2017-09-21T07:12:28.247Z,2.57
2017-09-21T07:14:55.661Z,6.47
2017-09-21T07:17:23.126Z,4.10
2017-09-21T07:19:50.570Z,3.60
2017-09-21T07:22:17.982Z,4.20
2017-09-21T07:24:45.537Z,8.33
2017-09-21T07:27:12.953Z,7.20
2017-09-21T07:29:40.438Z,1.90
2017-09-21T07:32:07.870Z,3.13
2017-09-21T07:34:35.314Z,3.07
2017-09-21T07:37:02.732Z,3.90
2017-09-21T07:39:30.204Z,2.23
2017-09-21T07:41:57.624Z,5.07
2017-09-21T07:44:25.052Z,3.47
2017-09-21T07:46:52.487Z,2.13
2017-09-21T07:49:20.004Z,2.90
2017-09-21T07:51:47.428Z,3.23
2017-09-21T07:54:14.866Z,3.85
2017-09-21T07:56:42.378Z,2.92
2017-09-21T07:59:10.195Z,3.77
2017-09-21T08:01:37.636Z,4.73
2017-09-21T08:04:05.723Z,3.10
2017-09-21T08:06:33.135Z,3.90
2017-09-21T08:09:00.590Z,1.80
2017-09-21T08:11:28.002Z,3.10
2017-09-21T08:13:55.414Z,5.10
2017-09-21T08:16:22.852Z,4.03
2017-09-21T08:18:50.272Z,3.20
2017-09-21T08:21:17.674Z,2.70
2017-09-21T08:23:45.110Z,2.30
2017-09-21T08:26:12.523Z,4.60
2017-09-21T08:28:39.934Z,2.63
2017-09-21T08:31:07.427Z,2.10
2017-09-21T08:33:34.831Z,1.97
2017-09-21T08:36:02.247Z,2.70
2017-09-21T08:38:29.684Z,2.23
2017-09-21T08:40:57.098Z,2.50
2017-09-21T08:43:24.510Z,3.70
2017-09-21T08:45:52.993Z,1.80
2017-09-21T08:48:20.393Z,2.17
2017-09-21T08:50:47.804Z,2.97
2017-09-21T08:53:15.223Z,2.03
2017-09-21T08:55:42.651Z,2.07
2017-09-21T08:58:10.100Z,1.60
2017-09-21T09:00:37.593Z,1.77
2017-09-21T09:03:05.106Z,1.60
2017-09-21T09:05:32.511Z,2.23
2017-09-21T09:07:59.970Z,1.70
2017-09-21T09:10:27.383Z,4.00
2017-09-21T09:12:54.794Z,2.10
2017-09-21T09:15:22.293Z,1.83
2017-09-21T09:17:49.701Z,1.60
2017-09-21T09:20:17.122Z,1.80
2017-09-21T09:22:44.554Z,2.20
2017-09-21T09:25:11.982Z,2.13
2017-09-21T09:27:39.400Z,2.80
2017-09-21T09:30:07.901Z,1.30
2017-09-21T09:32:35.392Z,1.20
2017-09-21T09:35:02.802Z,2.30
2017-09-21T09:37:30.245Z,1.83
2017-09-21T09:39:57.654Z,1.90
2017-09-21T09:42:25.107Z,1.30
2017-09-21T09:44:52.624Z,1.93
2017-09-21T09:47:20.024Z,3.57
2017-09-21T09:49:47.441Z,1.40
2017-09-21T09:52:14.879Z,2.30
2017-09-21T09:54:42.295Z,2.63
2017-09-21T09:57:09.714Z,1.73
2017-09-21T09:59:37.148Z,3.00
2017-09-21T10:02:04.554Z,2.43
2017-09-21T10:04:31.981Z,3.20
2017-09-21T10:07:01.943Z,5.63
2017-09-21T10:09:29.374Z,10.83
2017-09-21T10:11:56.788Z,6.03
2017-09-21T10:14:24.272Z,5.40
2017-09-21T10:16:51.698Z,7.25
2017-09-21T10:19:19.126Z,3.67
2017-09-21T10:21:46.626Z,4.27
2017-09-21T10:24:14.051Z,3.70
2017-09-21T10:26:41.505Z,5.47
2017-09-21T10:29:09.125Z,5.63
2017-09-21T10:31:36.730Z,5.33
2017-09-21T10:34:04.154Z,4.27
2017-09-21T10:36:31.655Z,3.57
2017-09-21T10:38:59.068Z,6.13
2017-09-21T10:41:26.497Z,5.03
2017-09-21T10:43:53.931Z,3.27
2017-09-21T10:46:21.339Z,3.87
2017-09-21T10:48:48.839Z,4.20
2017-09-21T10:51:16.570Z,4.13
2017-09-21T10:53:44.028Z,2.50
2017-09-21T10:56:11.436Z,11.03
2017-09-21T10:58:38.947Z,7.30
2017-09-21T11:01:06.388Z,3.80
2017-09-21T11:03:33.945Z,3.67
2017-09-21T11:06:01.472Z,3.97
2017-09-21T11:08:28.904Z,4.50
2017-09-21T11:10:56.339Z,6.60
2017-09-21T11:13:23.784Z,14.13
2017-09-21T11:15:51.254Z,5.07
2017-09-21T11:18:18.722Z,5.43
2017-09-21T11:20:46.157Z,8.10
2017-09-21T11:23:13.563Z,3.80
2017-09-21T11:25:40.997Z,7.63
2017-09-21T11:28:08.447Z,5.83
2017-09-21T11:30:35.939Z,5.67
2017-09-21T11:33:03.353Z,9.20
2017-09-21T11:35:30.803Z,4.77
2017-09-21T11:37:58.335Z,9.50
2017-09-21T11:40:25.778Z,7.40
2017-09-21T11:42:53.363Z,5.27
2017-09-21T11:45:20.786Z,4.07
2017-09-21T11:47:48.195Z,5.03
2017-09-21T11:50:15.654Z,4.00
2017-09-21T11:52:43.072Z,5.53
2017-09-21T11:55:10.486Z,3.77
2017-09-21T11:57:37.934Z,3.17
2017-09-21T12:00:05.964Z,5.43
2017-09-21T12:02:33.422Z,3.20
2017-09-21T12:05:00.870Z,5.33
2017-09-21T12:07:28.300Z,2.13
2017-09-21T12:09:55.795Z,3.20
2017-09-21T12:12:23.258Z,4.70
2017-09-21T12:14:50.671Z,3.30
2017-09-21T12:17:18.095Z,2.50
2017-09-21T12:19:45.526Z,3.70
2017-09-21T12:22:12.994Z,3.97
2017-09-21T12:24:40.395Z,3.20
2017-09-21T12:27:07.861Z,3.33
2017-09-21T12:29:35.325Z,3.30
2017-09-21T12:32:02.750Z,3.57
2017-09-21T12:34:30.201Z,4.43
2017-09-21T12:36:57.611Z,2.90
2017-09-21T12:39:25.853Z,4.17
2017-09-21T12:41:53.273Z,2.23
2017-09-21T12:44:20.873Z,2.20
2017-09-21T12:46:48.289Z,3.37
2017-09-21T12:49:15.744Z,3.33
2017-09-21T12:51:43.184Z,2.73
2017-09-21T12:54:10.596Z,6.90
2017-09-21T12:56:38.076Z,3.05
2017-09-21T12:59:05.489Z,2.20
2017-09-21T13:01:32.916Z,3.57
2017-09-21T13:04:00.351Z,1.87
2017-09-21T13:06:27.757Z,2.50
2017-09-21T13:08:55.172Z,2.80
2017-09-21T13:11:22.661Z,1.87
2017-09-21T13:13:50.062Z,5.30
2017-09-21T13:16:17.500Z,2.07
2017-09-21T13:18:44.960Z,3.40
2017-09-21T13:21:12.515Z,3.50
2017-09-21T13:23:39.964Z,2.30
2017-09-21T13:26:07.427Z,3.73
2017-09-21T13:28:34.833Z,2.83
2017-09-21T13:31:02.248Z,4.50
2017-09-21T13:33:29.690Z,4.80
2017-09-21T13:35:57.102Z,3.67
2017-09-21T13:38:24.510Z,6.03
2017-09-21T13:40:51.956Z,4.63
2017-09-21T13:43:19.422Z,5.03
2017-09-21T13:45:46.834Z,7.33
2017-09-21T13:48:14.259Z,6.85
2017-09-21T13:50:41.672Z,7.68
2017-09-21T13:53:09.085Z,5.20
2017-09-21T13:55:36.545Z,12.83
2017-09-21T13:58:03.994Z,12.30
2017-09-21T14:00:31.380Z,3.50
2017-09-21T14:02:58.915Z,10.77
2017-09-21T14:05:26.330Z,5.50
2017-09-21T14:07:53.753Z,11.07
2017-09-21T14:10:21.203Z,10.30
2017-09-21T14:12:49.607Z,5.57
2017-09-21T14:15:17.011Z,3.93
2017-09-21T14:17:44.459Z,15.07
2017-09-21T14:20:11.974Z,11.23
2017-09-21T14:22:39.426Z,21.37
2017-09-21T14:25:06.887Z,12.43
2017-09-21T14:27:34.301Z,13.10
2017-09-21T14:30:01.707Z,12.83
2017-09-21T14:32:29.163Z,12.50
2017-09-21T14:34:56.642Z,13.57
2017-09-21T14:37:24.035Z,8.48
2017-09-21T14:39:51.464Z,12.23
2017-09-21T14:42:18.882Z,13.02
2017-09-21T14:44:46.293Z,10.90
2017-09-21T14:47:13.729Z,10.90
2017-09-21T14:49:41.181Z,8.17
2017-09-21T14:52:08.604Z,7.00
2017-09-21T14:54:36.061Z,8.33
2017-09-21T14:57:03.501Z,13.00
2017-09-21T14:59:30.914Z,13.97
2017-09-21T15:01:58.383Z,11.20
2017-09-21T15:04:25.804Z,14.13
2017-09-21T15:06:53.284Z,11.33
2017-09-21T15:09:20.728Z,3.67
2017-09-21T15:11:48.296Z,7.70
2017-09-21T15:14:15.709Z,7.97
2017-09-21T15:16:43.181Z,10.40
2017-09-21T15:19:10.600Z,4.30
2017-09-21T15:21:38.002Z,9.33
2017-09-21T15:24:05.954Z,8.13
2017-09-21T15:26:33.377Z,8.10
2017-09-21T15:29:00.790Z,4.73
2017-09-21T15:31:28.241Z,8.10
2017-09-21T15:33:55.728Z,15.53
2017-09-21T15:36:23.171Z,13.00
2017-09-21T15:38:50.642Z,4.80
2017-09-21T15:41:18.182Z,5.90
2017-09-21T15:43:45.619Z,4.73
2017-09-21T15:46:13.067Z,7.82
2017-09-21T15:48:40.519Z,5.10
2017-09-21T15:51:08.045Z,10.10
2017-09-21T15:53:35.500Z,7.43
2017-09-21T15:56:02.920Z,8.33
2017-09-21T15:58:30.321Z,7.87
2017-09-21T16:00:57.778Z,5.57
2017-09-21T16:03:25.198Z,8.40
2017-09-21T16:05:52.668Z,7.47
2017-09-21T16:08:20.126Z,9.03
2017-09-21T16:10:47.549Z,5.67
2017-09-21T16:13:14.962Z,10.60
2017-09-21T16:15:42.452Z,5.47
2017-09-21T16:18:10.025Z,9.45
2017-09-21T16:20:37.456Z,6.47
2017-09-21T16:23:04.874Z,5.83
2017-09-21T16:25:32.307Z,4.97
2017-09-21T16:27:59.730Z,4.47
2017-09-21T16:30:27.173Z,6.20
2017-09-21T16:32:54.589Z,6.53
2017-09-21T16:35:22.076Z,5.47
2017-09-21T16:37:49.530Z,7.87
2017-09-21T16:40:16.985Z,6.40
2017-09-21T16:42:44.410Z,6.10
2017-09-21T16:45:11.917Z,9.50
2017-09-21T16:47:40.283Z,12.57
2017-09-21T16:50:07.690Z,5.43
2017-09-21T16:52:35.147Z,8.83
2017-09-21T16:55:03.182Z,8.40
2017-09-21T16:57:30.589Z,7.13
2017-09-21T16:59:58.028Z,8.23
2017-09-21T17:02:25.593Z,8.50
2017-09-21T17:04:56.643Z,4.67
2017-09-21T17:07:24.164Z,6.93
2017-09-21T17:09:51.637Z,5.10
2017-09-21T17:12:19.061Z,5.12
2017-09-21T17:14:46.487Z,3.07
2017-09-21T17:17:17.551Z,3.27
2017-09-21T17:19:44.964Z,5.93
2017-09-21T17:22:12.410Z,5.15
2017-09-21T17:24:40.157Z,5.03
2017-09-21T17:27:07.575Z,5.00
2017-09-21T17:29:35.035Z,3.80
2017-09-21T17:32:02.446Z,9.03
2017-09-21T17:34:29.874Z,7.93
2017-09-21T17:36:57.299Z,3.23
2017-09-21T17:39:24.716Z,4.20
2017-09-21T17:41:52.138Z,5.90
2017-09-21T17:44:19.580Z,4.90
2017-09-21T17:46:46.991Z,7.13
2017-09-21T17:49:14.403Z,8.70
2017-09-21T17:51:41.924Z,6.62
2017-09-21T17:54:09.375Z,4.43
2017-09-21T17:56:36.790Z,3.73
2017-09-21T17:59:04.727Z,11.50
2017-09-21T18:01:32.154Z,11.17
2017-09-21T18:03:59.576Z,6.50
2017-09-21T18:06:27.012Z,8.83
2017-09-21T18:08:54.441Z,12.00
2017-09-21T18:11:21.856Z,14.03
2017-09-21T18:13:49.357Z,16.77
2017-09-21T18:16:16.816Z,7.22
2017-09-21T18:18:44.236Z,6.55
2017-09-21T18:21:12.317Z,10.38
2017-09-21T18:23:39.760Z,12.73
2017-09-21T18:26:07.253Z,10.97
2017-09-21T18:28:34.707Z,14.93
2017-09-21T18:31:02.173Z,15.53
2017-09-21T18:33:29.638Z,14.13
2017-09-21T18:35:57.093Z,8.70
2017-09-21T18:38:24.519Z,14.53
2017-09-21T18:40:51.947Z,10.90
2017-09-21T18:43:19.451Z,12.30
2017-09-21T18:45:46.968Z,10.90
2017-09-21T18:48:14.514Z,10.13
2017-09-21T18:50:42.028Z,5.57
2017-09-21T18:53:09.728Z,6.17
2017-09-21T18:55:37.154Z,4.80
2017-09-21T18:58:04.900Z,8.80
2017-09-21T19:00:32.375Z,7.33
2017-09-21T19:02:59.789Z,5.90
2017-09-21T19:05:27.213Z,3.07
2017-09-21T19:07:54.831Z,15.17
2017-09-21T19:10:22.304Z,6.43
2017-09-21T19:12:49.765Z,4.27
2017-09-21T19:15:17.209Z,3.93
2017-09-21T19:17:44.617Z,4.70
2017-09-21T19:20:12.080Z,9.67
2017-09-21T19:22:39.502Z,4.30
2017-09-21T19:25:06.967Z,2.60
2017-09-21T19:27:34.405Z,5.63
2017-09-21T19:30:01.827Z,5.63
2017-09-21T19:32:29.248Z,9.27
2017-09-21T19:34:56.727Z,6.63
2017-09-21T19:37:24.164Z,8.13
2017-09-21T19:39:51.572Z,4.97
2017-09-21T19:42:19.019Z,7.60
2017-09-21T19:44:46.448Z,4.40
2017-09-21T19:47:13.852Z,6.90
2017-09-21T19:49:41.315Z,2.93
2017-09-21T19:52:08.733Z,9.37
2017-09-21T19:54:36.180Z,4.30
2017-09-21T19:57:03.614Z,6.93
2017-09-21T19:59:31.041Z,3.90
2017-09-21T20:01:59.168Z,6.80
2017-09-21T20:04:26.599Z,2.97
2017-09-21T20:06:54.020Z,4.67
2017-09-21T20:09:21.441Z,2.93
2017-09-21T20:11:48.875Z,3.93
2017-09-21T20:14:16.291Z,6.70
2017-09-21T20:16:43.703Z,2.92
2017-09-21T20:19:11.127Z,7.47
2017-09-21T20:21:38.577Z,3.93
2017-09-21T20:24:05.983Z,4.50
2017-09-21T20:26:33.418Z,4.20
2017-09-21T20:29:01.026Z,5.70
2017-09-21T20:31:28.446Z,4.50
2017-09-21T20:33:55.867Z,2.73
2017-09-21T20:36:23.276Z,3.63
2017-09-21T20:38:50.789Z,2.43
2017-09-21T20:41:18.236Z,4.00
2017-09-21T20:43:45.654Z,3.37
2017-09-21T20:46:13.112Z,3.57
2017-09-21T20:48:40.515Z,5.70
2017-09-21T20:51:07.925Z,3.10
2017-09-21T20:53:35.341Z,4.43
2017-09-21T20:56:02.867Z,6.33
2017-09-21T20:58:30.287Z,4.40
2017-09-21T21:00:57.744Z,3.43
2017-09-21T21:03:25.184Z,1.80
2017-09-21T21:05:52.617Z,2.60
2017-09-21T21:08:20.013Z,2.53
2017-09-21T21:10:47.437Z,3.00
2017-09-21T21:13:14.890Z,8.00
2017-09-21T21:15:42.298Z,3.40
2017-09-21T21:18:09.763Z,5.37
2017-09-21T21:20:37.177Z,5.97
2017-09-21T21:23:04.594Z,3.57
2017-09-21T21:25:32.058Z,8.57
2017-09-21T21:27:59.606Z,6.87
2017-09-21T21:30:27.016Z,4.50
2017-09-21T21:32:54.471Z,3.83
2017-09-21T21:35:21.887Z,2.60
2017-09-21T21:37:49.315Z,3.20
2017-09-21T21:40:16.875Z,1.93
2017-09-21T21:42:44.294Z,4.20
2017-09-21T21:45:11.719Z,2.00
2017-09-21T21:47:39.173Z,4.07
2017-09-21T21:50:06.592Z,2.72
2017-09-21T21:52:34.057Z,2.50
2017-09-21T21:55:01.506Z,3.50
2017-09-21T21:57:28.925Z,2.97
2017-09-21T21:59:56.327Z,3.40
2017-09-21T22:02:23.790Z,2.73
2017-09-21T22:04:51.342Z,5.30
2017-09-21T22:07:18.807Z,2.90
2017-09-21T22:09:46.254Z,4.87
2017-09-21T22:12:13.660Z,3.03
2017-09-21T22:14:41.083Z,2.97
2017-09-21T22:17:08.532Z,1.60
2017-09-21T22:19:35.975Z,2.43
2017-09-21T22:22:03.410Z,3.43
2017-09-21T22:24:30.852Z,2.33
2017-09-21T22:26:58.276Z,1.47
2017-09-21T22:29:25.684Z,3.30
2017-09-21T22:31:53.124Z,4.60
2017-09-21T22:34:20.762Z,2.30
2017-09-21T22:36:48.181Z,1.87
2017-09-21T22:39:15.629Z,4.10
2017-09-21T22:41:43.038Z,2.17
2017-09-21T22:44:10.452Z,5.12
2017-09-21T22:46:37.923Z,1.80
2017-09-21T22:49:05.337Z,2.50
2017-09-21T22:51:32.749Z,2.03
2017-09-21T22:54:00.199Z,1.47
2017-09-21T22:56:27.628Z,1.60
2017-09-21T22:58:55.039Z,1.87
2017-09-21T23:01:22.471Z,2.70
2017-09-21T23:03:49.875Z,1.40
2017-09-21T23:06:17.294Z,2.30
2017-09-21T23:08:44.743Z,4.27
2017-09-21T23:11:12.162Z,1.27
2017-09-21T23:13:39.571Z,2.70
2017-09-21T23:16:07.054Z,1.80
2017-09-21T23:18:34.468Z,1.60
2017-09-21T23:21:01.886Z,1.37
2017-09-21T23:23:29.312Z,1.67
2017-09-21T23:25:56.728Z,2.07
2017-09-21T23:28:24.132Z,1.83
2017-09-21T23:30:51.717Z,1.50
2017-09-21T23:33:19.120Z,1.93
2017-09-21T23:35:46.560Z,1.30
2017-09-21T23:38:13.998Z,1.50
2017-09-21T23:40:41.407Z,2.55
2017-09-21T23:43:08.817Z,1.47
2017-09-21T23:45:36.297Z,1.57
2017-09-21T23:48:03.707Z,2.27
2017-09-21T23:50:31.184Z,1.40
2017-09-21T23:52:58.636Z,1.37
2017-09-21T23:55:26.062Z,2.20
2017-09-21T23:57:53.471Z,1.47
